createdAt,value
2022-12-15T00:02:17.101Z,36.65
2022-12-15T00:05:02.261Z,37.88
2022-12-15T00:07:47.812Z,44.55
2022-12-15T00:10:33.207Z,37.08
2022-12-15T00:13:18.524Z,38.80
2022-12-15T00:16:05.452Z,43.38
2022-12-15T00:18:50.885Z,51.08
2022-12-15T00:21:36.211Z,38.50
2022-12-15T00:24:21.663Z,45.35
2022-12-15T00:27:06.909Z,39.00
2022-12-15T00:29:52.321Z,45.33
2022-12-15T00:32:37.480Z,44.20
2022-12-15T00:35:23.036Z,64.63
2022-12-15T00:38:08.419Z,57.63
2022-12-15T00:40:35.031Z,52.42
2022-12-15T00:43:01.792Z,57.97
2022-12-15T00:45:48.411Z,46.40
2022-12-15T00:48:15.215Z,54.97
2022-12-15T00:50:53.825Z,44.05
2022-12-15T00:53:40.787Z,43.17
2022-12-15T00:56:26.425Z,48.22
2022-12-15T00:59:12.341Z,45.17
2022-12-15T01:01:57.958Z,42.63
2022-12-15T01:04:43.354Z,45.70
2022-12-15T01:07:28.798Z,39.15
2022-12-15T01:10:14.233Z,39.45
2022-12-15T01:12:59.595Z,45.05
2022-12-15T01:15:45.079Z,49.45
2022-12-15T01:18:30.330Z,60.78
2022-12-15T01:21:01.926Z,53.63
2022-12-15T01:23:29.427Z,53.67
2022-12-15T01:25:56.342Z,49.28
2022-12-15T01:28:23.931Z,50.08
2022-12-15T01:30:51.293Z,48.42
2022-12-15T01:33:19.534Z,48.13
2022-12-15T01:35:58.486Z,44.80
2022-12-15T01:38:26.354Z,49.72
2022-12-15T01:41:01.775Z,51.88
2022-12-15T01:43:34.871Z,50.72
2022-12-15T01:46:09.747Z,45.20
2022-12-15T01:48:57.678Z,53.85
2022-12-15T01:51:42.636Z,48.45
2022-12-15T01:54:20.859Z,51.13
2022-12-15T01:56:52.570Z,55.22
2022-12-15T01:59:28.809Z,49.15
2022-12-15T02:01:55.492Z,51.08
2022-12-15T02:04:23.673Z,44.78
2022-12-15T02:06:50.595Z,46.83
2022-12-15T02:09:18.666Z,54.20
2022-12-15T02:12:00.754Z,46.30
2022-12-15T02:14:47.373Z,45.83
2022-12-15T02:17:38.642Z,49.67
2022-12-15T02:20:28.674Z,48.40
2022-12-15T02:23:33.294Z,54.72
2022-12-15T02:26:47.865Z,56.78
2022-12-15T02:29:33.262Z,47.38
2022-12-15T02:32:10.202Z,43.97
2022-12-15T02:34:47.376Z,37.90
2022-12-15T02:37:18.095Z,33.13
2022-12-15T02:39:44.787Z,38.88
2022-12-15T02:42:11.637Z,38.08
2022-12-15T02:44:44.512Z,42.38
2022-12-15T02:47:18.880Z,43.25
2022-12-15T02:49:57.321Z,43.63
2022-12-15T02:52:57.837Z,36.50
2022-12-15T02:55:56.821Z,47.13
2022-12-15T02:58:48.286Z,41.40
2022-12-15T03:01:36.087Z,48.83
2022-12-15T03:04:06.261Z,40.63
2022-12-15T03:06:32.869Z,41.83
2022-12-15T03:08:59.563Z,50.35
2022-12-15T03:11:26.308Z,50.13
2022-12-15T03:13:54.249Z,36.10
2022-12-15T03:16:21.498Z,29.23
2022-12-15T03:18:48.210Z,40.58
2022-12-15T03:21:14.796Z,43.38
2022-12-15T03:23:41.469Z,40.92
2022-12-15T03:26:08.138Z,37.42
2022-12-15T03:28:34.851Z,50.47
2022-12-15T03:31:01.455Z,36.83
2022-12-15T03:33:28.542Z,44.90
2022-12-15T03:35:55.748Z,49.95
2022-12-15T03:38:22.433Z,39.42
2022-12-15T03:40:49.066Z,43.92
2022-12-15T03:43:15.628Z,39.78
2022-12-15T03:45:42.244Z,44.95
2022-12-15T03:48:08.986Z,43.47
2022-12-15T03:50:41.590Z,36.10
2022-12-15T03:53:08.254Z,44.20
2022-12-15T03:55:35.244Z,34.67
2022-12-15T03:58:02.716Z,39.28
2022-12-15T04:00:29.407Z,37.58
2022-12-15T04:02:56.414Z,36.20
2022-12-15T04:05:27.059Z,51.40
2022-12-15T04:07:55.182Z,42.67
2022-12-15T04:10:25.258Z,34.33
2022-12-15T04:13:11.756Z,65.57
2022-12-15T04:15:39.994Z,37.33
2022-12-15T04:18:10.063Z,43.63
2022-12-15T04:20:46.545Z,37.95
2022-12-15T04:23:16.929Z,39.78
2022-12-15T04:26:02.105Z,45.40
2022-12-15T04:28:47.359Z,37.67
2022-12-15T04:31:39.743Z,44.40
2022-12-15T04:34:29.253Z,39.17
2022-12-15T04:37:14.795Z,43.17
2022-12-15T04:40:03.736Z,43.45
2022-12-15T04:42:51.258Z,35.90
2022-12-15T04:45:40.022Z,36.05
2022-12-15T04:48:25.990Z,25.47
2022-12-15T04:51:11.385Z,36.15
2022-12-15T04:53:56.858Z,39.88
2022-12-15T04:56:42.440Z,31.98
2022-12-15T04:59:27.708Z,34.45
2022-12-15T05:02:13.269Z,34.85
2022-12-15T05:04:58.288Z,34.00
2022-12-15T05:07:44.286Z,34.53
2022-12-15T05:10:29.756Z,34.47
2022-12-15T05:13:25.957Z,33.50
2022-12-15T05:16:11.327Z,36.95
2022-12-15T05:18:56.717Z,29.17
2022-12-15T05:21:42.224Z,34.15
2022-12-15T05:24:27.477Z,33.63
2022-12-15T05:27:12.868Z,32.83
2022-12-15T05:29:58.116Z,38.58
2022-12-15T05:32:24.745Z,35.95
2022-12-15T05:34:51.282Z,31.45
2022-12-15T05:37:17.913Z,36.80
2022-12-15T05:39:44.565Z,31.33
2022-12-15T05:42:11.228Z,38.38
2022-12-15T05:44:37.889Z,30.10
2022-12-15T05:47:04.822Z,30.58
2022-12-15T05:49:31.625Z,28.08
2022-12-15T05:51:58.302Z,39.55
2022-12-15T05:54:25.396Z,29.58
2022-12-15T05:56:52.025Z,38.60
2022-12-15T05:59:21.612Z,38.92
2022-12-15T06:01:48.293Z,31.08
2022-12-15T06:04:15.048Z,44.30
2022-12-15T06:06:42.213Z,42.63
2022-12-15T06:09:09.725Z,40.05
2022-12-15T06:11:37.408Z,35.05
2022-12-15T06:14:04.211Z,48.00
2022-12-15T06:16:31.339Z,42.30
2022-12-15T06:19:00.044Z,31.95
2022-12-15T06:21:30.572Z,12.48
2022-12-15T06:23:58.339Z,40.90
2022-12-15T06:26:27.460Z,30.63
2022-12-15T06:28:57.451Z,34.35
2022-12-15T06:31:25.744Z,36.97
2022-12-15T06:34:00.942Z,39.75
2022-12-15T06:36:28.548Z,58.00
2022-12-15T06:38:58.357Z,52.50
2022-12-15T06:43:53.491Z,51.13
2022-12-15T06:46:20.539Z,51.58
2022-12-15T06:48:47.695Z,51.75
2022-12-15T06:51:17.458Z,47.10
2022-12-15T06:53:55.186Z,65.72
2022-12-15T06:56:33.065Z,49.35
2022-12-15T06:59:01.559Z,53.25
2022-12-15T07:01:28.449Z,67.60
2022-12-15T07:03:55.869Z,51.00
2022-12-15T07:06:23.053Z,62.28
2022-12-15T07:08:52.447Z,55.50
2022-12-15T07:11:20.899Z,55.22
2022-12-15T07:13:51.717Z,61.03
2022-12-15T07:16:19.450Z,65.00
2022-12-15T07:18:46.130Z,68.30
2022-12-15T07:23:59.138Z,67.60
2022-12-15T07:26:26.960Z,68.90
2022-12-15T07:28:54.507Z,58.03
2022-12-15T07:31:22.076Z,62.92
2022-12-15T07:36:32.865Z,68.82
2022-12-15T07:39:01.162Z,70.85
2022-12-15T07:41:28.577Z,73.53
2022-12-15T07:43:55.403Z,74.00
2022-12-15T07:46:22.201Z,76.90
2022-12-15T07:48:54.857Z,69.60
2022-12-15T07:51:21.641Z,75.97
2022-12-15T07:53:50.036Z,78.15
2022-12-15T07:56:17.871Z,78.15
2022-12-15T07:58:44.651Z,82.72
2022-12-15T08:01:12.820Z,41.10
2022-12-15T08:03:40.784Z,69.20
2022-12-15T08:06:10.375Z,76.22
2022-12-15T08:08:37.548Z,79.53
2022-12-15T08:11:09.324Z,62.03
2022-12-15T08:16:23.589Z,68.22
2022-12-15T08:18:50.382Z,78.78
2022-12-15T08:21:25.527Z,71.32
2022-12-15T08:23:52.151Z,79.72
2022-12-15T08:26:21.468Z,71.35
2022-12-15T08:28:50.481Z,71.00
2022-12-15T08:31:20.924Z,71.30
2022-12-15T08:33:48.256Z,68.72
2022-12-15T08:36:17.108Z,72.25
2022-12-15T08:38:45.489Z,74.63
2022-12-15T08:41:15.954Z,63.60
2022-12-15T08:43:48.254Z,72.90
2022-12-15T08:46:18.870Z,65.57
2022-12-15T08:51:12.403Z,62.42
2022-12-15T08:53:39.096Z,47.75
2022-12-15T08:56:08.423Z,60.38
2022-12-15T08:58:35.128Z,69.07
2022-12-15T09:01:04.366Z,68.80
2022-12-15T09:03:31.604Z,66.53
2022-12-15T09:06:05.143Z,71.15
2022-12-15T09:08:32.389Z,72.97
2022-12-15T09:10:59.854Z,66.53
2022-12-15T09:13:27.222Z,79.28
2022-12-15T09:16:13.506Z,51.05
2022-12-15T09:18:43.699Z,51.75
2022-12-15T09:21:11.190Z,68.03
2022-12-15T09:23:38.247Z,52.72
2022-12-15T09:26:10.813Z,53.45
2022-12-15T09:28:38.268Z,47.42
2022-12-15T09:31:07.018Z,54.20
2022-12-15T09:33:34.435Z,49.13
2022-12-15T09:36:01.864Z,69.88
2022-12-15T09:38:28.479Z,59.97
2022-12-15T09:40:55.921Z,71.63
2022-12-15T09:43:37.908Z,64.65
2022-12-15T09:46:23.360Z,63.80
2022-12-15T09:48:52.486Z,60.45
2022-12-15T09:51:19.519Z,66.45
2022-12-15T09:53:55.769Z,66.03
2022-12-15T09:56:31.717Z,61.40
2022-12-15T09:59:09.804Z,67.95
2022-12-15T10:02:06.844Z,55.90
2022-12-15T10:04:42.690Z,59.63
2022-12-15T10:07:34.636Z,54.17
2022-12-15T10:10:11.432Z,63.60
2022-12-15T10:12:53.219Z,50.72
2022-12-15T10:15:28.497Z,54.95
2022-12-15T10:18:23.332Z,69.50
2022-12-15T10:20:53.955Z,59.10
2022-12-15T10:23:21.383Z,62.38
2022-12-15T10:25:59.750Z,50.83
2022-12-15T10:28:39.287Z,43.45
2022-12-15T10:31:20.193Z,38.50
2022-12-15T10:34:07.221Z,55.20
2022-12-15T10:36:33.924Z,56.70
2022-12-15T10:39:00.532Z,48.67
2022-12-15T10:41:31.580Z,56.35
2022-12-15T10:43:58.307Z,49.60
2022-12-15T10:46:30.489Z,45.50
2022-12-15T10:49:23.463Z,54.00
2022-12-15T10:54:35.046Z,53.35
2022-12-15T10:57:17.264Z,47.60
2022-12-15T10:59:43.989Z,35.60
2022-12-15T11:02:27.449Z,47.85
2022-12-15T11:05:26.688Z,44.42
2022-12-15T11:08:15.045Z,34.25
2022-12-15T11:11:12.957Z,31.63
2022-12-15T11:13:40.494Z,35.38
2022-12-15T11:16:16.129Z,33.17
2022-12-15T11:18:48.702Z,37.28
2022-12-15T11:21:36.898Z,38.50
2022-12-15T11:24:15.767Z,37.85
2022-12-15T11:27:24.222Z,37.10
2022-12-15T11:30:27.068Z,36.40
2022-12-15T11:33:00.557Z,24.02
2022-12-15T11:36:09.995Z,26.20
2022-12-15T11:38:59.990Z,29.95
2022-12-15T11:41:43.724Z,36.95
2022-12-15T11:44:13.282Z,37.42
2022-12-15T11:46:47.212Z,36.40
2022-12-15T11:49:40.762Z,43.63
2022-12-15T11:52:15.400Z,38.55
2022-12-15T11:54:47.116Z,35.15
2022-12-15T11:57:53.294Z,32.63
2022-12-15T12:00:21.844Z,38.00
2022-12-15T12:03:13.924Z,33.85
2022-12-15T12:05:49.420Z,38.00
2022-12-15T12:08:33.356Z,34.85
2022-12-15T12:11:12.714Z,29.88
2022-12-15T12:17:05.730Z,32.42
2022-12-15T12:19:40.188Z,30.30
2022-12-15T12:22:19.429Z,31.13
2022-12-15T12:24:51.053Z,29.88
2022-12-15T12:27:39.589Z,37.83
2022-12-15T12:30:14.834Z,35.17
2022-12-15T12:33:17.496Z,31.95
2022-12-15T12:35:55.034Z,30.30
2022-12-15T12:38:32.294Z,31.42
2022-12-15T12:41:23.555Z,33.78
2022-12-15T12:43:58.282Z,34.58
2022-12-15T12:46:42.433Z,32.80
2022-12-15T12:49:32.174Z,35.63
2022-12-15T12:52:03.396Z,33.50
2022-12-15T12:54:35.908Z,40.40
2022-12-15T12:57:28.322Z,37.75
2022-12-15T13:00:13.828Z,35.72
2022-12-15T13:02:46.627Z,32.17
2022-12-15T13:05:26.391Z,32.28
2022-12-15T13:08:10.709Z,36.83
2022-12-15T13:10:39.665Z,33.88
2022-12-15T13:13:27.216Z,33.30
2022-12-15T13:16:22.747Z,36.53
2022-12-15T13:19:08.390Z,35.05
2022-12-15T13:21:44.298Z,35.55
2022-12-15T13:24:45.932Z,33.88
2022-12-15T13:27:17.508Z,31.38
2022-12-15T13:30:06.853Z,32.35
2022-12-15T13:32:36.640Z,33.35
2022-12-15T13:35:12.339Z,41.97
2022-12-15T13:37:59.138Z,34.28
2022-12-15T13:40:38.674Z,34.88
2022-12-15T13:43:05.284Z,35.33
2022-12-15T13:45:38.081Z,43.65
2022-12-15T13:48:34.729Z,34.58
2022-12-15T13:51:30.244Z,36.30
2022-12-15T13:54:01.841Z,34.33
2022-12-15T13:56:47.241Z,40.88
2022-12-15T13:59:33.544Z,47.35
2022-12-15T14:02:00.559Z,42.45
2022-12-15T14:04:27.660Z,35.78
2022-12-15T14:07:01.919Z,42.95
2022-12-15T14:09:32.687Z,37.65
2022-12-15T14:12:01.989Z,43.08
2022-12-15T14:14:33.230Z,38.92
2022-12-15T14:17:02.812Z,38.88
2022-12-15T14:19:41.024Z,44.45
2022-12-15T14:22:28.178Z,40.83
2022-12-15T14:25:02.498Z,40.38
2022-12-15T14:27:31.718Z,42.92
2022-12-15T14:30:12.278Z,45.30
2022-12-15T14:32:39.959Z,36.67
2022-12-15T14:35:12.458Z,37.78
2022-12-15T14:37:39.628Z,38.83
2022-12-15T14:40:07.184Z,41.88
2022-12-15T14:42:34.088Z,39.47
2022-12-15T14:45:00.786Z,35.97
2022-12-15T14:47:31.663Z,39.83
2022-12-15T14:50:01.025Z,45.92
2022-12-15T14:52:29.711Z,42.55
2022-12-15T14:54:59.935Z,45.33
2022-12-15T14:57:37.683Z,43.67
2022-12-15T15:00:24.463Z,49.20
2022-12-15T15:03:12.649Z,32.03
2022-12-15T15:03:18.313Z,50.63
2022-12-15T15:05:49.682Z,50.08
2022-12-15T15:08:33.215Z,47.47
2022-12-15T15:11:19.282Z,54.35
2022-12-15T15:13:46.980Z,50.30
2022-12-15T15:16:18.804Z,51.53
2022-12-15T15:18:51.138Z,52.90
2022-12-15T15:21:23.240Z,50.13
2022-12-15T15:24:04.131Z,49.42
2022-12-15T15:26:31.387Z,55.97
2022-12-15T15:28:58.744Z,61.85
2022-12-15T15:31:25.459Z,59.85
2022-12-15T15:33:52.803Z,56.42
2022-12-15T15:36:19.653Z,49.50
2022-12-15T15:38:46.881Z,60.55
2022-12-15T15:41:18.255Z,56.40
2022-12-15T15:43:47.671Z,51.13
2022-12-15T15:46:22.095Z,63.22
2022-12-15T15:48:58.274Z,53.17
2022-12-15T15:51:26.407Z,57.13
2022-12-15T15:53:54.973Z,59.15
2022-12-15T15:56:21.763Z,56.50
2022-12-15T15:58:48.381Z,70.03
2022-12-15T16:01:15.054Z,61.05
2022-12-15T16:03:42.039Z,64.75
2022-12-15T16:06:19.926Z,59.47
2022-12-15T16:08:53.814Z,65.88
2022-12-15T16:11:26.004Z,63.30
2022-12-15T16:13:52.676Z,45.60
2022-12-15T16:16:22.357Z,56.65
2022-12-15T16:18:49.221Z,52.25
2022-12-15T16:21:17.797Z,60.33
2022-12-15T16:23:46.933Z,61.30
2022-12-15T16:26:25.529Z,71.15
2022-12-15T16:28:54.234Z,59.10
2022-12-15T16:31:42.064Z,67.15
2022-12-15T16:34:08.992Z,66.55
2022-12-15T16:36:35.955Z,60.20
2022-12-15T16:39:03.415Z,59.45
2022-12-15T16:41:30.058Z,65.90
2022-12-15T16:43:56.770Z,63.10
2022-12-15T16:46:23.452Z,88.15
2022-12-15T16:48:50.203Z,63.15
2022-12-15T16:51:39.453Z,68.25
2022-12-15T16:54:06.966Z,71.88
2022-12-15T16:56:33.691Z,66.35
2022-12-15T16:59:31.349Z,68.13
2022-12-15T17:01:48.117Z,63.83
2022-12-15T17:04:16.548Z,73.85
2022-12-15T17:06:43.485Z,64.03
2022-12-15T17:09:22.816Z,74.70
2022-12-15T17:11:50.317Z,74.95
2022-12-15T17:14:19.268Z,62.28
2022-12-15T17:16:46.001Z,75.72
2022-12-15T17:19:17.658Z,70.05
2022-12-15T17:21:53.250Z,70.10
2022-12-15T17:24:22.133Z,68.85
2022-12-15T17:26:49.116Z,60.10
2022-12-15T17:29:19.078Z,74.85
2022-12-15T17:31:46.181Z,72.00
2022-12-15T17:34:27.249Z,63.85
2022-12-15T17:36:54.637Z,70.43
2022-12-15T17:39:22.456Z,73.20
2022-12-15T17:42:00.050Z,59.35
2022-12-15T17:44:33.650Z,63.43
2022-12-15T17:47:02.345Z,68.65
2022-12-15T17:49:35.112Z,67.45
2022-12-15T17:52:06.484Z,68.05
2022-12-15T17:54:33.938Z,60.50
2022-12-15T17:57:00.499Z,68.25
2022-12-15T17:59:27.190Z,62.40
2022-12-15T18:01:57.205Z,73.32
2022-12-15T18:04:24.287Z,77.65
2022-12-15T18:06:51.165Z,78.18
2022-12-15T18:09:20.908Z,64.70
2022-12-15T18:11:47.723Z,73.33
2022-12-15T18:14:17.281Z,71.00
2022-12-15T18:16:45.098Z,70.22
2022-12-15T18:19:12.395Z,74.63
2022-12-15T18:21:39.199Z,72.72
2022-12-15T18:24:17.011Z,78.15
2022-12-15T18:26:43.848Z,82.20
2022-12-15T18:29:17.700Z,88.70
2022-12-15T18:31:46.941Z,72.40
2022-12-15T18:34:17.410Z,77.75
2022-12-15T18:36:44.626Z,78.05
2022-12-15T18:39:26.192Z,69.85
2022-12-15T18:41:54.728Z,80.10
2022-12-15T18:44:26.945Z,78.00
2022-12-15T18:46:55.031Z,81.38
2022-12-15T18:49:22.895Z,80.50
2022-12-15T18:51:50.169Z,80.28
2022-12-15T18:54:20.023Z,74.95
2022-12-15T18:59:15.907Z,66.05
2022-12-15T19:01:44.320Z,74.22
2022-12-15T19:04:11.161Z,81.18
2022-12-15T19:06:39.776Z,69.72
2022-12-15T19:09:27.084Z,50.15
2022-12-15T19:12:12.257Z,65.85
2022-12-15T19:14:42.641Z,81.35
2022-12-15T19:17:32.958Z,83.07
2022-12-15T19:20:18.289Z,90.95
2022-12-15T19:22:46.741Z,70.85
2022-12-15T19:25:25.026Z,79.10
2022-12-15T19:27:58.282Z,64.78
2022-12-15T19:30:29.979Z,85.90
2022-12-15T19:32:56.985Z,92.80
2022-12-15T19:35:24.899Z,90.43
2022-12-15T19:37:54.976Z,85.28
2022-12-15T19:40:27.559Z,95.15
2022-12-15T19:42:55.452Z,94.40
2022-12-15T19:45:24.833Z,96.50
2022-12-15T19:47:51.602Z,93.93
2022-12-15T19:50:24.474Z,91.10
2022-12-15T19:52:56.232Z,93.43
2022-12-15T19:55:28.327Z,88.47
2022-12-15T19:57:55.005Z,80.47
2022-12-15T20:00:22.677Z,82.93
2022-12-15T20:02:51.413Z,76.47
2022-12-15T20:05:19.468Z,96.13
2022-12-15T20:07:47.209Z,92.72
2022-12-15T20:10:29.549Z,80.18
2022-12-15T20:12:59.030Z,88.30
2022-12-15T20:15:30.782Z,84.13
2022-12-15T20:17:57.868Z,83.07
2022-12-15T20:20:27.586Z,89.13
2022-12-15T20:22:57.236Z,103.35
2022-12-15T20:25:28.486Z,85.60
2022-12-15T20:27:55.461Z,104.95
2022-12-15T20:30:25.788Z,81.30
2022-12-15T20:32:52.984Z,83.70
2022-12-15T20:35:21.759Z,95.90
2022-12-15T20:37:48.736Z,89.55
2022-12-15T20:40:23.935Z,100.50
2022-12-15T20:42:52.377Z,77.93
2022-12-15T20:45:24.020Z,73.18
2022-12-15T20:47:52.976Z,88.60
2022-12-15T20:50:41.990Z,99.45
2022-12-15T20:53:19.518Z,121.95
2022-12-15T20:55:47.963Z,90.00
2022-12-15T20:58:15.676Z,98.68
2022-12-15T21:00:43.150Z,112.45
2022-12-15T21:03:30.520Z,225.63
2022-12-15T21:05:59.381Z,179.88
2022-12-15T21:08:31.155Z,191.48
2022-12-15T21:11:21.152Z,221.10
2022-12-15T21:13:49.180Z,255.32
2022-12-15T21:16:21.531Z,109.88
2022-12-15T21:21:40.685Z,86.20
2022-12-15T21:24:20.142Z,103.80
2022-12-15T21:26:47.010Z,89.93
2022-12-15T21:29:19.165Z,131.15
2022-12-15T21:31:46.419Z,141.13
2022-12-15T21:34:13.815Z,113.40
2022-12-15T21:36:43.286Z,116.70
2022-12-15T21:39:17.885Z,92.50
2022-12-15T21:41:44.568Z,85.07
2022-12-15T21:44:15.444Z,82.88
2022-12-15T21:46:42.156Z,89.03
2022-12-15T21:49:18.351Z,91.65
2022-12-15T21:51:57.181Z,79.20
2022-12-15T21:54:32.312Z,69.20
2022-12-15T21:56:59.884Z,58.80
2022-12-15T21:59:29.590Z,86.22
2022-12-15T22:04:29.207Z,77.22
2022-12-15T22:06:56.048Z,83.43
2022-12-15T22:09:22.742Z,77.13
2022-12-15T22:11:53.677Z,81.93
2022-12-15T22:14:34.001Z,73.57
2022-12-15T22:17:10.559Z,82.90
2022-12-15T22:19:37.111Z,86.57
2022-12-15T22:22:03.671Z,76.47
2022-12-15T22:24:30.865Z,81.25
2022-12-15T22:26:57.528Z,83.68
2022-12-15T22:29:24.974Z,80.00
2022-12-15T22:31:52.069Z,91.00
2022-12-15T22:34:26.163Z,143.90
2022-12-15T22:36:52.800Z,127.90
2022-12-15T22:39:21.616Z,275.27
2022-12-15T22:41:50.672Z,138.68
2022-12-15T22:44:19.511Z,147.73
2022-12-15T22:46:47.038Z,131.95
2022-12-15T22:49:20.286Z,86.72
2022-12-15T22:51:47.194Z,134.20
2022-12-15T22:54:17.965Z,266.90
2022-12-15T22:56:45.782Z,124.00
2022-12-15T22:59:18.502Z,85.60
2022-12-15T23:01:46.125Z,112.60
2022-12-15T23:04:13.047Z,90.53
2022-12-15T23:06:40.409Z,75.80
2022-12-15T23:09:07.223Z,70.95
2022-12-15T23:11:41.274Z,69.88
2022-12-15T23:14:16.472Z,66.80
2022-12-15T23:16:45.511Z,79.88
2022-12-15T23:19:23.626Z,71.28
2022-12-15T23:21:51.113Z,93.70
2022-12-15T23:24:18.540Z,68.90
2022-12-15T23:26:45.130Z,50.08
2022-12-15T23:29:11.712Z,44.35
2022-12-15T23:31:38.364Z,64.72
2022-12-15T23:34:05.193Z,67.25
2022-12-15T23:36:31.818Z,101.45
2022-12-15T23:38:58.467Z,79.70
2022-12-15T23:41:25.220Z,58.15
2022-12-15T23:43:51.887Z,80.32
2022-12-15T23:46:18.796Z,81.85
2022-12-15T23:48:45.578Z,78.88
2022-12-15T23:51:13.599Z,67.28
2022-12-15T23:53:41.602Z,69.40
2022-12-15T23:56:16.454Z,68.50
2022-12-15T23:58:45.016Z,72.55
